Terminal Aerodrome Forecast
Issued by NWS

Home | Current Version | Previous Version | Text Only | Print | Product List | Glossary On
Versions: 1 2 3 4 5 6 7 8 9 10 11 12
996
FTUS46 KEKA 091736
TAFCEC
TAF
KCEC 091736Z 0918/1018 15005KT P6SM BKN250
     FM092100 18007KT 6SM HZ SCT250
     FM100400 15005KT P6SM BKN250
     FM101200 15008KT P6SM FEW150 BKN250=

USA.gov is the U.S. government's official web portal to all federal, state and local government web resources and services.